createdAt,value
2023-01-11T00:02:05.033Z,2.95
2023-01-11T00:04:31.404Z,3.06
2023-01-11T00:06:57.844Z,2.87
2023-01-11T00:09:24.195Z,3.25
2023-01-11T00:11:50.521Z,3.33
2023-01-11T00:14:16.849Z,3.06
2023-01-11T00:16:43.150Z,2.98
2023-01-11T00:19:09.460Z,2.94
2023-01-11T00:21:35.776Z,3.13
2023-01-11T00:24:02.069Z,3.20
2023-01-11T00:26:28.386Z,3.29
2023-01-11T00:28:54.674Z,3.31
2023-01-11T00:31:20.974Z,3.28
2023-01-11T00:33:47.293Z,3.33
2023-01-11T00:36:13.586Z,3.28
2023-01-11T00:38:39.893Z,2.95
2023-01-11T00:41:06.189Z,3.07
2023-01-11T00:43:32.493Z,3.08
2023-01-11T00:45:58.872Z,2.93
2023-01-11T00:48:25.204Z,2.97
2023-01-11T00:50:51.495Z,3.01
2023-01-11T00:53:17.779Z,2.96
2023-01-11T00:55:44.076Z,2.91
2023-01-11T00:58:10.396Z,2.87
2023-01-11T01:00:36.704Z,2.97
2023-01-11T01:03:02.994Z,3.06
2023-01-11T01:05:29.285Z,2.97
2023-01-11T01:07:55.576Z,3.15
2023-01-11T01:10:21.889Z,3.21
2023-01-11T01:12:48.206Z,2.89
2023-01-11T01:15:14.483Z,2.94
2023-01-11T01:17:40.774Z,3.15
2023-01-11T01:20:07.066Z,3.09
2023-01-11T01:22:33.364Z,3.05
2023-01-11T01:24:59.652Z,3.01
2023-01-11T01:27:25.962Z,3.02
2023-01-11T01:29:52.267Z,2.82
2023-01-11T01:32:18.580Z,3.06
2023-01-11T01:34:44.889Z,2.96
2023-01-11T01:37:11.187Z,2.78
2023-01-11T01:39:37.491Z,2.61
2023-01-11T01:42:03.788Z,2.68
2023-01-11T01:44:30.099Z,2.87
2023-01-11T01:46:56.398Z,2.72
2023-01-11T01:49:22.696Z,2.84
2023-01-11T01:51:49.009Z,2.81
2023-01-11T01:54:15.324Z,2.85
2023-01-11T01:56:41.622Z,2.92
2023-01-11T01:59:07.927Z,2.89
2023-01-11T02:01:34.246Z,3.04
2023-01-11T02:04:00.583Z,3.08
2023-01-11T02:06:26.888Z,2.81
2023-01-11T02:08:53.195Z,3.16
2023-01-11T02:11:19.470Z,2.82
2023-01-11T02:13:45.767Z,2.81
2023-01-11T02:16:12.160Z,2.78
2023-01-11T02:18:38.505Z,2.97
2023-01-11T02:21:04.812Z,3.09
2023-01-11T02:23:31.115Z,2.87
2023-01-11T02:25:57.406Z,3.20
2023-01-11T02:28:23.700Z,2.91
2023-01-11T02:30:49.997Z,2.70
2023-01-11T02:33:16.298Z,2.75
2023-01-11T02:35:42.579Z,2.95
2023-01-11T02:38:08.870Z,2.78
2023-01-11T02:40:35.189Z,3.00
2023-01-11T02:43:01.471Z,3.14
2023-01-11T02:45:27.753Z,3.44
2023-01-11T02:47:54.051Z,3.48
2023-01-11T02:50:20.354Z,3.52
2023-01-11T02:52:46.674Z,3.29
2023-01-11T02:55:12.981Z,3.34
2023-01-11T02:57:39.285Z,3.25
2023-01-11T03:00:05.579Z,3.44
2023-01-11T03:02:31.929Z,3.27
2023-01-11T03:04:58.313Z,3.20
2023-01-11T03:07:24.621Z,3.58
2023-01-11T03:09:50.912Z,3.63
2023-01-11T03:12:17.231Z,4.11
2023-01-11T03:14:43.524Z,4.34
2023-01-11T03:17:09.816Z,4.17
2023-01-11T03:19:36.105Z,3.58
2023-01-11T03:22:02.422Z,3.90
2023-01-11T03:24:28.704Z,3.96
2023-01-11T03:26:54.995Z,3.83
2023-01-11T03:29:21.330Z,3.76
2023-01-11T03:31:47.613Z,3.95
2023-01-11T03:34:13.897Z,3.71
2023-01-11T03:36:40.189Z,3.38
2023-01-11T03:39:06.511Z,3.51
2023-01-11T03:41:32.815Z,3.27
2023-01-11T03:43:59.099Z,3.23
2023-01-11T03:46:25.390Z,3.23
2023-01-11T03:48:51.736Z,3.30
2023-01-11T03:51:18.027Z,3.45
2023-01-11T03:53:44.323Z,3.51
2023-01-11T03:56:10.661Z,3.42
2023-01-11T03:58:36.960Z,3.54
2023-01-11T04:01:03.303Z,3.35
2023-01-11T04:03:29.612Z,3.37
2023-01-11T04:05:55.917Z,3.25
2023-01-11T04:08:22.234Z,3.19
2023-01-11T04:10:48.520Z,3.22
2023-01-11T04:13:14.832Z,3.48
2023-01-11T04:15:41.115Z,3.57
2023-01-11T04:18:07.401Z,3.40
2023-01-11T04:20:33.690Z,3.12
2023-01-11T04:22:59.979Z,3.14
2023-01-11T04:25:26.265Z,3.17
2023-01-11T04:27:52.586Z,2.89
2023-01-11T04:30:18.879Z,3.08
2023-01-11T04:32:45.182Z,3.18
2023-01-11T04:35:11.473Z,2.93
2023-01-11T04:37:37.766Z,3.08
2023-01-11T04:40:05.221Z,3.08
2023-01-11T04:42:31.509Z,2.84
2023-01-11T04:44:57.813Z,3.25
2023-01-11T04:47:24.120Z,2.80
2023-01-11T04:49:50.423Z,2.75
2023-01-11T04:52:16.731Z,2.93
2023-01-11T04:54:43.036Z,2.82
2023-01-11T04:57:09.320Z,2.96
2023-01-11T04:59:35.606Z,2.85
2023-01-11T05:02:01.898Z,2.81
2023-01-11T05:04:28.256Z,2.75
2023-01-11T05:06:54.667Z,2.85
2023-01-11T05:09:21.105Z,2.47
2023-01-11T05:11:47.449Z,2.20
2023-01-11T05:14:13.823Z,2.26
2023-01-11T05:16:40.220Z,2.36
2023-01-11T05:19:06.681Z,2.04
2023-01-11T05:21:33.095Z,2.10
2023-01-11T05:23:59.487Z,2.19
2023-01-11T05:26:25.831Z,2.11
2023-01-11T05:28:52.170Z,2.14
2023-01-11T05:31:18.603Z,2.41
2023-01-11T05:33:45.033Z,2.46
2023-01-11T05:36:11.397Z,2.57
2023-01-11T05:38:37.774Z,2.65
2023-01-11T05:41:04.133Z,2.81
2023-01-11T05:43:30.499Z,2.73
2023-01-11T05:45:56.930Z,2.77
2023-01-11T05:48:23.373Z,3.56
2023-01-11T05:50:49.723Z,4.58
2023-01-11T05:53:16.129Z,3.24
2023-01-11T05:55:42.489Z,4.78
2023-01-11T05:58:08.836Z,2.90
2023-01-11T06:00:35.166Z,2.50
2023-01-11T06:03:01.555Z,2.63
2023-01-11T06:05:27.956Z,4.40
2023-01-11T06:07:54.331Z,4.24
2023-01-11T06:10:20.740Z,7.01
2023-01-11T06:12:47.139Z,3.80
2023-01-11T06:15:13.542Z,2.67
2023-01-11T06:17:39.891Z,2.88
2023-01-11T06:20:06.231Z,4.47
2023-01-11T06:22:32.563Z,4.09
2023-01-11T06:24:58.950Z,3.43
2023-01-11T06:27:25.301Z,6.51
2023-01-11T06:29:51.787Z,2.99
2023-01-11T06:32:18.150Z,2.56
2023-01-11T06:34:44.499Z,2.75
2023-01-11T06:37:10.906Z,2.66
2023-01-11T06:39:37.262Z,2.54
2023-01-11T06:42:03.599Z,2.49
2023-01-11T06:44:30.014Z,2.61
2023-01-11T06:46:56.383Z,2.71
2023-01-11T06:49:22.767Z,2.83
2023-01-11T06:51:49.110Z,3.26
2023-01-11T06:54:15.452Z,3.64
2023-01-11T06:56:41.841Z,3.35
2023-01-11T06:59:08.229Z,2.97
2023-01-11T07:01:34.794Z,3.22
2023-01-11T07:04:01.389Z,3.31
2023-01-11T07:06:27.747Z,3.74
2023-01-11T07:08:54.097Z,3.43
2023-01-11T07:11:20.533Z,4.59
2023-01-11T07:13:46.892Z,3.17
2023-01-11T07:16:13.302Z,3.36
2023-01-11T07:18:39.696Z,3.89
2023-01-11T07:21:06.100Z,4.37
2023-01-11T07:23:32.466Z,3.57
2023-01-11T07:25:58.836Z,3.66
2023-01-11T07:28:25.227Z,3.21
2023-01-11T07:30:58.842Z,3.27
2023-01-11T07:33:25.818Z,3.22
2023-01-11T07:35:52.174Z,3.37
2023-01-11T07:38:18.552Z,3.29
2023-01-11T07:40:44.953Z,3.56
2023-01-11T07:43:11.368Z,3.66
2023-01-11T07:45:45.529Z,3.71
2023-01-11T07:48:12.422Z,3.72
2023-01-11T07:50:38.807Z,3.05
2023-01-11T07:53:05.193Z,2.93
2023-01-11T07:55:31.581Z,2.90
2023-01-11T07:57:57.994Z,2.93
2023-01-11T08:00:24.355Z,2.98
2023-01-11T08:02:52.283Z,2.64
2023-01-11T08:05:18.654Z,3.07
2023-01-11T08:07:45.057Z,2.95
2023-01-11T08:10:11.455Z,3.05
2023-01-11T08:12:37.867Z,2.81
2023-01-11T08:15:04.287Z,2.64
2023-01-11T08:17:30.707Z,2.80
2023-01-11T08:19:57.165Z,2.70
2023-01-11T08:22:23.547Z,3.03
2023-01-11T08:24:49.952Z,2.90
2023-01-11T08:27:16.310Z,2.89
2023-01-11T08:29:42.716Z,2.59
2023-01-11T08:32:09.109Z,2.84
2023-01-11T08:34:35.536Z,3.17
2023-01-11T08:37:01.927Z,3.38
2023-01-11T08:39:28.295Z,3.25
2023-01-11T08:41:54.654Z,3.49
2023-01-11T08:44:33.336Z,3.44
2023-01-11T08:47:00.622Z,3.25
2023-01-11T08:49:27.004Z,3.05
2023-01-11T08:51:53.359Z,3.03
2023-01-11T08:54:19.698Z,3.01
2023-01-11T08:56:46.118Z,2.98
2023-01-11T08:59:12.480Z,3.10
2023-01-11T09:01:38.916Z,3.01
2023-01-11T09:04:19.248Z,3.27
2023-01-11T09:06:49.709Z,3.10
2023-01-11T09:09:16.084Z,3.04
2023-01-11T09:11:42.444Z,3.40
2023-01-11T09:14:08.819Z,3.23
2023-01-11T09:16:35.180Z,3.22
2023-01-11T09:19:01.547Z,3.26
2023-01-11T09:21:27.930Z,3.42
2023-01-11T09:23:54.307Z,3.15
2023-01-11T09:26:20.672Z,3.19
2023-01-11T09:28:47.057Z,3.33
2023-01-11T09:31:13.481Z,3.15
2023-01-11T09:33:39.881Z,3.12
2023-01-11T09:36:06.263Z,2.93
2023-01-11T09:38:32.697Z,3.07
2023-01-11T09:40:59.058Z,3.17
2023-01-11T09:43:25.437Z,3.17
2023-01-11T09:45:51.832Z,3.00
2023-01-11T09:48:18.182Z,2.79
2023-01-11T09:50:44.580Z,2.73
2023-01-11T09:53:10.998Z,2.52
2023-01-11T09:55:37.471Z,2.86
2023-01-11T09:58:03.859Z,2.77
2023-01-11T10:00:30.389Z,3.15
2023-01-11T10:02:56.803Z,3.10
2023-01-11T10:05:23.206Z,3.21
2023-01-11T10:07:49.578Z,3.09
2023-01-11T10:18:29.557Z,3.32
2023-01-11T10:18:57.944Z,3.25
2023-01-11T10:21:21.299Z,3.07
2023-01-11T10:23:47.647Z,3.44
2023-01-11T10:26:14.018Z,3.34
2023-01-11T10:28:40.371Z,3.45
2023-01-11T10:31:06.808Z,3.54
2023-01-11T10:33:33.222Z,3.35
2023-01-11T10:35:59.589Z,3.04
2023-01-11T10:38:25.950Z,3.30
2023-01-11T10:40:52.332Z,3.42
2023-01-11T10:43:18.727Z,3.15
2023-01-11T10:45:45.142Z,3.29
2023-01-11T10:48:11.497Z,3.33
2023-01-11T10:50:37.884Z,3.39
2023-01-11T10:53:04.273Z,3.50
2023-01-11T10:55:30.663Z,3.65
2023-01-11T10:58:00.019Z,3.33
2023-01-11T11:00:29.928Z,3.56
2023-01-11T11:02:56.290Z,3.71
2023-01-11T11:05:22.655Z,3.53
2023-01-11T11:07:49.010Z,3.82
2023-01-11T11:10:15.397Z,3.58
2023-01-11T11:12:41.760Z,3.50
2023-01-11T11:15:08.152Z,3.92
2023-01-11T11:17:34.542Z,3.78
2023-01-11T11:20:00.946Z,3.65
2023-01-11T11:22:27.381Z,4.06
2023-01-11T11:24:53.734Z,3.70
2023-01-11T11:27:20.091Z,3.69
2023-01-11T11:29:46.490Z,3.65
2023-01-11T11:32:12.905Z,3.50
2023-01-11T11:34:39.321Z,3.67
2023-01-11T11:37:05.713Z,3.51
2023-01-11T11:39:32.103Z,3.74
2023-01-11T11:41:58.477Z,5.71
2023-01-11T11:44:24.940Z,3.63
2023-01-11T11:46:51.350Z,4.35
2023-01-11T11:49:17.770Z,3.26
2023-01-11T11:51:44.162Z,9.26
2023-01-11T11:54:10.532Z,19.94
2023-01-11T11:56:36.883Z,5.25
2023-01-11T11:59:03.261Z,4.68
2023-01-11T12:01:29.763Z,3.00
2023-01-11T12:03:56.183Z,2.65
2023-01-11T12:06:22.646Z,2.54
2023-01-11T12:08:49.025Z,2.97
2023-01-11T12:11:15.418Z,3.29
2023-01-11T12:13:42.444Z,2.09
2023-01-11T12:16:08.823Z,3.01
2023-01-11T12:18:35.216Z,2.15
2023-01-11T12:21:01.570Z,1.93
2023-01-11T12:23:27.997Z,2.50
2023-01-11T12:25:54.358Z,2.34
2023-01-11T12:28:20.750Z,2.76
2023-01-11T12:30:47.111Z,4.55
2023-01-11T12:33:13.503Z,3.91
2023-01-11T12:35:39.907Z,2.30
2023-01-11T12:38:06.305Z,2.36
2023-01-11T12:40:32.653Z,2.11
2023-01-11T12:42:59.040Z,2.27
2023-01-11T12:45:25.476Z,2.17
2023-01-11T12:47:51.830Z,2.13
2023-01-11T12:50:18.267Z,2.03
2023-01-11T12:52:44.674Z,2.29
2023-01-11T12:55:11.061Z,2.51
2023-01-11T12:57:37.457Z,2.22
2023-01-11T13:00:03.802Z,2.26
2023-01-11T13:02:30.247Z,2.04
2023-01-11T13:04:56.651Z,2.45
2023-01-11T13:07:23.017Z,2.53
2023-01-11T13:09:49.399Z,2.29
2023-01-11T13:12:15.797Z,2.39
2023-01-11T13:14:42.163Z,2.65
2023-01-11T13:17:08.507Z,2.92
2023-01-11T13:19:34.912Z,2.63
2023-01-11T13:22:01.305Z,2.72
2023-01-11T13:24:27.679Z,3.20
2023-01-11T13:26:54.103Z,3.39
2023-01-11T13:29:20.484Z,3.21
2023-01-11T13:31:46.870Z,3.14
2023-01-11T13:34:13.226Z,3.57
2023-01-11T13:36:39.604Z,3.41
2023-01-11T13:39:05.984Z,3.52
2023-01-11T13:41:32.378Z,3.16
2023-01-11T13:43:58.799Z,3.21
2023-01-11T13:46:25.275Z,2.85
2023-01-11T13:48:51.686Z,3.10
2023-01-11T13:51:18.049Z,2.80
2023-01-11T13:53:44.430Z,2.90
2023-01-11T13:56:10.783Z,2.89
2023-01-11T13:58:37.232Z,2.79
2023-01-11T14:01:03.706Z,2.97
2023-01-11T14:03:30.240Z,2.76
2023-01-11T14:05:56.630Z,2.80
2023-01-11T14:08:23.026Z,2.75
2023-01-11T14:10:49.382Z,2.93
2023-01-11T14:13:15.781Z,2.88
2023-01-11T14:15:42.232Z,3.03
2023-01-11T14:18:08.607Z,3.17
2023-01-11T14:20:35.003Z,3.09
2023-01-11T14:23:01.462Z,4.48
2023-01-11T14:25:27.823Z,4.01
2023-01-11T14:27:54.212Z,3.36
2023-01-11T14:30:20.576Z,10.42
2023-01-11T14:32:46.956Z,4.86
2023-01-11T14:35:13.318Z,3.06
2023-01-11T14:37:39.709Z,2.53
2023-01-11T14:40:06.062Z,2.66
2023-01-11T14:42:35.364Z,2.82
2023-01-11T14:45:02.148Z,3.45
2023-01-11T14:47:28.489Z,3.15
2023-01-11T14:49:54.835Z,3.30
2023-01-11T14:52:25.532Z,3.21
2023-01-11T14:55:01.001Z,4.34
2023-01-11T14:57:27.410Z,3.27
2023-01-11T14:59:53.801Z,2.62
2023-01-11T15:02:20.143Z,2.39
2023-01-11T15:04:46.555Z,2.19
2023-01-11T15:07:12.945Z,2.46
2023-01-11T15:09:39.296Z,12.39
2023-01-11T15:12:05.729Z,13.73
2023-01-11T15:14:32.141Z,11.64
2023-01-11T15:16:58.541Z,7.10
2023-01-11T15:19:24.941Z,3.68
2023-01-11T15:21:51.304Z,2.39
2023-01-11T15:24:17.666Z,2.15
2023-01-11T15:26:44.099Z,2.63
2023-01-11T15:29:10.493Z,3.24
2023-01-11T15:31:36.936Z,2.27
2023-01-11T15:34:03.402Z,3.23
2023-01-11T15:36:29.816Z,2.52
2023-01-11T15:38:56.209Z,2.45
2023-01-11T15:41:22.570Z,2.18
2023-01-11T15:43:48.994Z,6.83
2023-01-11T15:46:15.412Z,4.61
2023-01-11T15:48:41.821Z,2.60
2023-01-11T15:51:08.196Z,2.34
2023-01-11T15:53:34.565Z,2.34
2023-01-11T15:56:00.976Z,2.20
2023-01-11T15:58:27.376Z,2.24
2023-01-11T16:00:53.793Z,2.23
2023-01-11T16:03:20.171Z,9.55
2023-01-11T16:05:46.509Z,4.56
2023-01-11T16:08:12.834Z,3.17
2023-01-11T16:10:39.232Z,2.41
2023-01-11T16:13:05.576Z,2.26
2023-01-11T16:15:31.958Z,1.93
2023-01-11T16:17:58.331Z,1.95
2023-01-11T16:20:24.730Z,2.04
2023-01-11T16:22:51.158Z,1.99
2023-01-11T16:25:17.539Z,2.01
2023-01-11T16:27:43.915Z,2.10
2023-01-11T16:30:10.296Z,1.93
2023-01-11T16:32:36.667Z,2.33
2023-01-11T16:35:03.009Z,2.42
2023-01-11T16:37:29.346Z,2.08
2023-01-11T16:39:55.682Z,2.04
2023-01-11T16:42:22.196Z,2.05
2023-01-11T16:44:48.605Z,2.22
2023-01-11T16:47:15.021Z,2.27
2023-01-11T16:49:41.423Z,1.98
2023-01-11T16:52:07.775Z,2.05
2023-01-11T16:54:34.155Z,2.28
2023-01-11T16:57:00.510Z,3.09
2023-01-11T16:59:26.890Z,2.54
2023-01-11T17:01:53.362Z,2.11
2023-01-11T17:04:19.775Z,2.40
2023-01-11T17:06:46.133Z,2.52
2023-01-11T17:09:19.469Z,2.37
2023-01-11T17:11:46.019Z,2.20
2023-01-11T17:14:12.382Z,2.26
2023-01-11T17:16:38.829Z,2.56
2023-01-11T17:19:05.294Z,2.65
2023-01-11T17:21:31.647Z,2.65
2023-01-11T17:23:58.033Z,5.35
2023-01-11T17:26:24.429Z,10.15
2023-01-11T17:28:50.788Z,7.28
2023-01-11T17:31:17.228Z,4.36
2023-01-11T17:33:43.650Z,3.28
2023-01-11T17:36:10.019Z,2.94
2023-01-11T17:38:36.411Z,3.33
2023-01-11T17:41:02.857Z,3.38
2023-01-11T17:43:29.313Z,3.20
2023-01-11T17:45:55.670Z,3.24
2023-01-11T17:48:22.121Z,3.34
2023-01-11T17:50:48.491Z,3.16
2023-01-11T17:53:14.888Z,3.61
2023-01-11T17:55:41.252Z,3.59
2023-01-11T17:58:07.619Z,3.48
2023-01-11T18:00:34.041Z,3.38
2023-01-11T18:03:00.390Z,3.63
2023-01-11T18:05:26.770Z,3.75
2023-01-11T18:07:53.151Z,7.64
2023-01-11T18:10:19.510Z,11.01
2023-01-11T18:12:45.868Z,6.61
2023-01-11T18:15:12.241Z,9.36
2023-01-11T18:17:38.638Z,14.82
2023-01-11T18:20:05.039Z,6.20
2023-01-11T18:22:31.391Z,11.81
2023-01-11T18:24:57.736Z,47.92
2023-01-11T18:27:24.135Z,34.45
2023-01-11T18:29:50.522Z,6.22
2023-01-11T18:32:16.874Z,5.26
2023-01-11T18:34:43.235Z,5.59
2023-01-11T18:37:09.582Z,5.18
2023-01-11T18:39:35.964Z,5.20
2023-01-11T18:42:02.377Z,4.93
2023-01-11T18:44:28.738Z,4.90
2023-01-11T18:46:55.075Z,4.84
2023-01-11T18:49:21.425Z,5.67
2023-01-11T18:51:47.758Z,4.97
2023-01-11T18:54:14.143Z,5.92
2023-01-11T18:56:40.526Z,5.24
2023-01-11T18:59:06.933Z,4.92
2023-01-11T19:01:46.888Z,5.12
2023-01-11T19:04:19.728Z,5.39
2023-01-11T19:06:46.082Z,6.91
2023-01-11T19:09:12.485Z,7.50
2023-01-11T19:11:38.883Z,8.14
2023-01-11T19:14:05.324Z,7.59
2023-01-11T19:16:31.673Z,7.79
2023-01-11T19:18:58.030Z,8.14
2023-01-11T19:21:24.417Z,8.64
2023-01-11T19:23:50.775Z,7.59
2023-01-11T19:26:17.118Z,7.50
2023-01-11T19:28:43.560Z,7.50
2023-01-11T19:31:09.985Z,6.63
2023-01-11T19:33:36.388Z,7.13
2023-01-11T19:36:02.805Z,6.59
2023-01-11T19:38:29.258Z,6.50
2023-01-11T19:40:55.669Z,6.36
2023-01-11T19:43:22.067Z,5.62
2023-01-11T19:45:48.566Z,5.81
2023-01-11T19:48:15.108Z,6.53
2023-01-11T19:50:41.503Z,6.39
2023-01-11T19:53:07.898Z,5.97
2023-01-11T19:55:34.257Z,6.62
2023-01-11T19:58:00.657Z,6.97
2023-01-11T20:00:27.003Z,7.12
2023-01-11T20:02:53.479Z,7.97
2023-01-11T20:05:19.910Z,8.76
2023-01-11T20:07:46.255Z,9.72
2023-01-11T20:10:12.641Z,9.38
2023-01-11T20:12:39.090Z,9.70
2023-01-11T20:15:05.484Z,9.16
2023-01-11T20:17:31.840Z,10.10
2023-01-11T20:19:58.198Z,9.87
2023-01-11T20:22:24.545Z,9.19
2023-01-11T20:24:50.950Z,9.76
2023-01-11T20:27:17.377Z,9.09
2023-01-11T20:29:43.875Z,8.93
2023-01-11T20:32:31.243Z,9.24
2023-01-11T20:34:56.627Z,9.85
2023-01-11T20:37:22.983Z,8.46
2023-01-11T20:39:49.327Z,8.09
2023-01-11T20:42:15.696Z,7.40
2023-01-11T20:44:42.072Z,7.28
2023-01-11T20:47:08.426Z,7.26
2023-01-11T20:49:34.786Z,6.90
2023-01-11T20:52:01.123Z,6.86
2023-01-11T20:54:27.577Z,7.36
2023-01-11T20:56:53.941Z,9.24
2023-01-11T20:59:20.514Z,8.43
2023-01-11T21:01:46.996Z,7.63
2023-01-11T21:04:13.424Z,8.50
2023-01-11T21:06:39.805Z,6.40
2023-01-11T21:09:06.164Z,6.35
2023-01-11T21:11:32.537Z,6.36
2023-01-11T21:16:24.194Z,6.62
2023-01-11T21:18:50.617Z,5.93
2023-01-11T21:21:16.963Z,5.71
2023-01-11T21:23:43.393Z,5.38
2023-01-11T21:26:09.744Z,4.99
2023-01-11T21:28:36.133Z,4.90
2023-01-11T21:31:02.568Z,4.99
2023-01-11T21:33:28.999Z,4.88
2023-01-11T21:35:55.459Z,4.69
2023-01-11T21:38:21.816Z,4.52
2023-01-11T21:40:48.161Z,4.66
2023-01-11T21:43:14.511Z,4.84
2023-01-11T21:45:40.891Z,4.54
2023-01-11T21:48:07.256Z,4.90
2023-01-11T21:50:33.592Z,4.65
2023-01-11T21:52:59.984Z,4.37
2023-01-11T21:55:26.379Z,3.82
2023-01-11T21:57:52.746Z,4.18
2023-01-11T22:00:19.126Z,3.78
2023-01-11T22:02:45.529Z,3.24
2023-01-11T22:05:11.896Z,2.27
2023-01-11T22:07:38.235Z,1.90
2023-01-11T22:10:05.558Z,1.82
2023-01-11T22:12:32.110Z,2.13
2023-01-11T22:14:58.458Z,2.53
2023-01-11T22:17:24.845Z,3.13
2023-01-11T22:19:51.260Z,3.15
2023-01-11T22:22:17.661Z,2.36
2023-01-11T22:24:44.068Z,2.01
2023-01-11T22:27:10.523Z,1.81
2023-01-11T22:29:36.952Z,1.59
2023-01-11T22:32:03.341Z,1.70
2023-01-11T22:34:29.697Z,1.79
2023-01-11T22:36:56.067Z,2.07
2023-01-11T22:39:22.421Z,1.82
2023-01-11T22:41:48.780Z,2.04
2023-01-11T22:44:15.138Z,2.02
2023-01-11T22:46:41.535Z,1.84
2023-01-11T22:49:07.885Z,1.99
2023-01-11T22:51:34.280Z,1.84
2023-01-11T22:54:00.679Z,1.92
2023-01-11T22:56:27.070Z,2.23
2023-01-11T22:58:53.441Z,2.16
2023-01-11T23:01:19.828Z,2.20
2023-01-11T23:03:46.230Z,1.98
2023-01-11T23:06:12.610Z,2.15
2023-01-11T23:08:39.006Z,2.35
2023-01-11T23:11:05.400Z,2.51
2023-01-11T23:13:31.797Z,2.56
2023-01-11T23:15:58.154Z,2.82
2023-01-11T23:18:24.547Z,2.87
2023-01-11T23:20:50.939Z,2.52
2023-01-11T23:23:17.328Z,2.73
2023-01-11T23:25:43.706Z,2.50
2023-01-11T23:28:10.097Z,2.44
2023-01-11T23:30:36.488Z,2.15
2023-01-11T23:33:02.842Z,2.35
2023-01-11T23:35:29.185Z,2.29
2023-01-11T23:37:55.532Z,2.27
2023-01-11T23:40:21.874Z,2.50
2023-01-11T23:42:48.224Z,2.50
2023-01-11T23:45:14.614Z,2.45
2023-01-11T23:47:40.985Z,2.48
2023-01-11T23:50:07.375Z,2.67
2023-01-11T23:52:33.761Z,2.53
2023-01-11T23:55:00.168Z,2.80
2023-01-11T23:57:26.533Z,2.93
2023-01-11T23:59:52.957Z,2.87
